sensor_id;sensor_type;location;lat;lon;timestamp;temperature;humidity
18541;DHT22;9400;50.924;5.328;2023-03-13T00:01:12;11.50;99.90
18541;DHT22;9400;50.924;5.328;2023-03-13T00:03:40;11.50;99.90
18541;DHT22;9400;50.924;5.328;2023-03-13T00:06:08;11.60;99.90
18541;DHT22;9400;50.924;5.328;2023-03-13T00:08:35;11.60;99.90
18541;DHT22;9400;50.924;5.328;2023-03-13T00:11:04;11.60;99.90
18541;DHT22;9400;50.924;5.328;2023-03-13T00:13:32;11.50;99.90
18541;DHT22;9400;50.924;5.328;2023-03-13T00:16:01;11.50;99.90
18541;DHT22;9400;50.924;5.328;2023-03-13T00:18:30;11.40;99.90
18541;DHT22;9400;50.924;5.328;2023-03-13T00:20:58;11.30;99.90
18541;DHT22;9400;50.924;5.328;2023-03-13T00:23:27;11.20;99.90
18541;DHT22;9400;50.924;5.328;2023-03-13T00:25:58;11.10;99.90
18541;DHT22;9400;50.924;5.328;2023-03-13T00:28:27;11.00;99.90
18541;DHT22;9400;50.924;5.328;2023-03-13T00:31:02;11.00;99.90
18541;DHT22;9400;50.924;5.328;2023-03-13T00:33:32;10.90;99.90
18541;DHT22;9400;50.924;5.328;2023-03-13T00:36:01;10.90;99.90
18541;DHT22;9400;50.924;5.328;2023-03-13T00:38:29;10.90;99.90
18541;DHT22;9400;50.924;5.328;2023-03-13T00:41:01;10.90;99.90
18541;DHT22;9400;50.924;5.328;2023-03-13T00:43:29;10.90;99.90
18541;DHT22;9400;50.924;5.328;2023-03-13T00:45:57;10.90;99.90
18541;DHT22;9400;50.924;5.328;2023-03-13T00:48:25;10.90;99.90
18541;DHT22;9400;50.924;5.328;2023-03-13T00:50:54;10.90;99.90
18541;DHT22;9400;50.924;5.328;2023-03-13T00:53:22;10.90;99.90
18541;DHT22;9400;50.924;5.328;2023-03-13T00:55:54;10.90;99.90
18541;DHT22;9400;50.924;5.328;2023-03-13T00:58:23;10.90;99.90
18541;DHT22;9400;50.924;5.328;2023-03-13T01:00:51;11.00;99.90
18541;DHT22;9400;50.924;5.328;2023-03-13T01:03:20;11.00;99.90
18541;DHT22;9400;50.924;5.328;2023-03-13T01:05:56;11.00;99.90
18541;DHT22;9400;50.924;5.328;2023-03-13T01:08:24;11.10;99.90
18541;DHT22;9400;50.924;5.328;2023-03-13T01:10:57;11.10;99.90
18541;DHT22;9400;50.924;5.328;2023-03-13T01:13:26;11.10;99.90
18541;DHT22;9400;50.924;5.328;2023-03-13T01:15:54;11.10;99.90
18541;DHT22;9400;50.924;5.328;2023-03-13T01:18:21;11.00;99.90
18541;DHT22;9400;50.924;5.328;2023-03-13T01:20:49;11.00;99.90
18541;DHT22;9400;50.924;5.328;2023-03-13T01:23:18;11.00;99.90
18541;DHT22;9400;50.924;5.328;2023-03-13T01:25:45;11.00;99.90
18541;DHT22;9400;50.924;5.328;2023-03-13T01:28:13;11.00;99.90
18541;DHT22;9400;50.924;5.328;2023-03-13T01:30:41;11.00;99.90
18541;DHT22;9400;50.924;5.328;2023-03-13T01:33:08;11.00;99.90
18541;DHT22;9400;50.924;5.328;2023-03-13T01:35:36;11.00;99.90
18541;DHT22;9400;50.924;5.328;2023-03-13T01:38:04;11.00;99.90
18541;DHT22;9400;50.924;5.328;2023-03-13T01:40:40;11.00;99.90
18541;DHT22;9400;50.924;5.328;2023-03-13T01:43:22;11.00;99.90
18541;DHT22;9400;50.924;5.328;2023-03-13T01:46:10;11.00;99.90
18541;DHT22;9400;50.924;5.328;2023-03-13T01:48:44;11.10;99.90
18541;DHT22;9400;50.924;5.328;2023-03-13T01:51:17;11.10;99.90
18541;DHT22;9400;50.924;5.328;2023-03-13T01:53:49;11.10;99.90
18541;DHT22;9400;50.924;5.328;2023-03-13T01:56:23;11.20;99.90
18541;DHT22;9400;50.924;5.328;2023-03-13T01:58:52;11.20;99.90
18541;DHT22;9400;50.924;5.328;2023-03-13T02:01:23;11.30;99.90
18541;DHT22;9400;50.924;5.328;2023-03-13T02:03:51;11.30;99.90
18541;DHT22;9400;50.924;5.328;2023-03-13T02:06:19;11.30;99.90
18541;DHT22;9400;50.924;5.328;2023-03-13T02:08:52;11.40;99.90
18541;DHT22;9400;50.924;5.328;2023-03-13T02:11:31;11.40;99.90
18541;DHT22;9400;50.924;5.328;2023-03-13T02:14:03;11.40;99.90
18541;DHT22;9400;50.924;5.328;2023-03-13T02:16:32;11.50;99.90
18541;DHT22;9400;50.924;5.328;2023-03-13T02:19:01;11.50;99.90
18541;DHT22;9400;50.924;5.328;2023-03-13T02:21:41;11.50;99.90
18541;DHT22;9400;50.924;5.328;2023-03-13T02:24:15;11.60;99.90
18541;DHT22;9400;50.924;5.328;2023-03-13T02:26:47;11.60;99.90
18541;DHT22;9400;50.924;5.328;2023-03-13T02:29:15;11.60;99.90
18541;DHT22;9400;50.924;5.328;2023-03-13T02:31:46;11.70;99.90
18541;DHT22;9400;50.924;5.328;2023-03-13T02:34:16;11.70;99.90
18541;DHT22;9400;50.924;5.328;2023-03-13T02:36:45;11.70;99.90
18541;DHT22;9400;50.924;5.328;2023-03-13T02:39:16;11.70;99.90
18541;DHT22;9400;50.924;5.328;2023-03-13T02:41:47;11.70;99.90
18541;DHT22;9400;50.924;5.328;2023-03-13T02:44:16;11.80;99.90
18541;DHT22;9400;50.924;5.328;2023-03-13T02:46:45;11.80;99.90
18541;DHT22;9400;50.924;5.328;2023-03-13T02:49:24;11.80;99.90
18541;DHT22;9400;50.924;5.328;2023-03-13T02:51:52;11.80;99.90
18541;DHT22;9400;50.924;5.328;2023-03-13T02:54:22;11.80;99.90
18541;DHT22;9400;50.924;5.328;2023-03-13T02:56:55;11.80;99.90
18541;DHT22;9400;50.924;5.328;2023-03-13T02:59:24;11.80;99.90
18541;DHT22;9400;50.924;5.328;2023-03-13T03:01:51;11.90;99.90
18541;DHT22;9400;50.924;5.328;2023-03-13T03:04:20;11.90;99.90
18541;DHT22;9400;50.924;5.328;2023-03-13T03:06:48;11.90;99.90
18541;DHT22;9400;50.924;5.328;2023-03-13T03:09:16;11.90;99.90
18541;DHT22;9400;50.924;5.328;2023-03-13T03:11:43;11.90;99.90
18541;DHT22;9400;50.924;5.328;2023-03-13T03:14:12;11.90;99.90
18541;DHT22;9400;50.924;5.328;2023-03-13T03:16:40;11.90;99.90
18541;DHT22;9400;50.924;5.328;2023-03-13T03:19:08;11.90;99.90
18541;DHT22;9400;50.924;5.328;2023-03-13T03:21:36;11.90;99.90
18541;DHT22;9400;50.924;5.328;2023-03-13T03:24:04;11.90;99.90
18541;DHT22;9400;50.924;5.328;2023-03-13T03:26:32;11.90;99.90
18541;DHT22;9400;50.924;5.328;2023-03-13T03:29:00;12.00;99.90
18541;DHT22;9400;50.924;5.328;2023-03-13T03:31:29;12.00;99.90
18541;DHT22;9400;50.924;5.328;2023-03-13T03:33:57;12.00;99.90
18541;DHT22;9400;50.924;5.328;2023-03-13T03:36:25;12.10;99.90
18541;DHT22;9400;50.924;5.328;2023-03-13T03:38:53;12.10;99.90
18541;DHT22;9400;50.924;5.328;2023-03-13T03:41:21;12.10;99.90
18541;DHT22;9400;50.924;5.328;2023-03-13T03:43:49;12.20;99.90
18541;DHT22;9400;50.924;5.328;2023-03-13T03:46:17;12.20;99.90
18541;DHT22;9400;50.924;5.328;2023-03-13T03:48:45;12.20;99.90
18541;DHT22;9400;50.924;5.328;2023-03-13T03:51:13;12.30;99.90
18541;DHT22;9400;50.924;5.328;2023-03-13T03:53:40;12.30;99.90
18541;DHT22;9400;50.924;5.328;2023-03-13T03:56:08;12.40;99.90
18541;DHT22;9400;50.924;5.328;2023-03-13T03:58:36;12.40;99.90
18541;DHT22;9400;50.924;5.328;2023-03-13T04:01:05;12.40;99.90
18541;DHT22;9400;50.924;5.328;2023-03-13T04:03:33;12.50;99.90
18541;DHT22;9400;50.924;5.328;2023-03-13T04:06:02;12.60;99.90
18541;DHT22;9400;50.924;5.328;2023-03-13T04:08:30;12.60;99.90
18541;DHT22;9400;50.924;5.328;2023-03-13T04:10:59;12.70;99.90
18541;DHT22;9400;50.924;5.328;2023-03-13T04:13:27;12.70;99.90
18541;DHT22;9400;50.924;5.328;2023-03-13T04:15:54;12.70;99.90
18541;DHT22;9400;50.924;5.328;2023-03-13T04:18:22;12.70;99.90
18541;DHT22;9400;50.924;5.328;2023-03-13T04:20:50;12.80;99.90
18541;DHT22;9400;50.924;5.328;2023-03-13T04:23:27;12.80;99.90
18541;DHT22;9400;50.924;5.328;2023-03-13T04:25:54;12.90;99.90
18541;DHT22;9400;50.924;5.328;2023-03-13T04:28:22;12.90;99.90
18541;DHT22;9400;50.924;5.328;2023-03-13T04:30:50;12.90;99.90
18541;DHT22;9400;50.924;5.328;2023-03-13T04:33:22;12.90;99.90
18541;DHT22;9400;50.924;5.328;2023-03-13T04:35:50;13.00;99.90
18541;DHT22;9400;50.924;5.328;2023-03-13T04:38:18;13.00;99.90
18541;DHT22;9400;50.924;5.328;2023-03-13T04:40:47;13.00;99.90
18541;DHT22;9400;50.924;5.328;2023-03-13T04:43:14;13.00;99.90
18541;DHT22;9400;50.924;5.328;2023-03-13T04:45:42;13.00;99.90
18541;DHT22;9400;50.924;5.328;2023-03-13T04:48:09;13.10;99.90
18541;DHT22;9400;50.924;5.328;2023-03-13T04:50:37;13.10;99.90
18541;DHT22;9400;50.924;5.328;2023-03-13T04:53:04;13.10;99.90
18541;DHT22;9400;50.924;5.328;2023-03-13T04:55:32;13.10;99.90
18541;DHT22;9400;50.924;5.328;2023-03-13T04:58:01;13.10;99.90
18541;DHT22;9400;50.924;5.328;2023-03-13T05:00:29;13.10;99.90
18541;DHT22;9400;50.924;5.328;2023-03-13T05:02:57;13.10;99.90
18541;DHT22;9400;50.924;5.328;2023-03-13T05:05:25;13.20;99.90
18541;DHT22;9400;50.924;5.328;2023-03-13T05:07:53;13.20;99.90
18541;DHT22;9400;50.924;5.328;2023-03-13T05:10:22;13.20;99.90
18541;DHT22;9400;50.924;5.328;2023-03-13T05:12:49;13.30;99.90
18541;DHT22;9400;50.924;5.328;2023-03-13T05:15:18;13.20;99.90
18541;DHT22;9400;50.924;5.328;2023-03-13T05:17:46;13.30;99.90
18541;DHT22;9400;50.924;5.328;2023-03-13T05:20:13;13.30;99.90
18541;DHT22;9400;50.924;5.328;2023-03-13T05:22:42;13.30;99.90
18541;DHT22;9400;50.924;5.328;2023-03-13T05:25:09;13.30;99.90
18541;DHT22;9400;50.924;5.328;2023-03-13T05:27:37;13.30;99.90
18541;DHT22;9400;50.924;5.328;2023-03-13T05:30:05;13.30;99.90
18541;DHT22;9400;50.924;5.328;2023-03-13T05:32:34;13.40;99.90
18541;DHT22;9400;50.924;5.328;2023-03-13T05:35:03;13.40;99.90
18541;DHT22;9400;50.924;5.328;2023-03-13T05:37:30;13.40;99.90
18541;DHT22;9400;50.924;5.328;2023-03-13T05:39:58;13.40;99.90
18541;DHT22;9400;50.924;5.328;2023-03-13T05:42:26;13.40;99.90
18541;DHT22;9400;50.924;5.328;2023-03-13T05:44:53;13.40;99.90
18541;DHT22;9400;50.924;5.328;2023-03-13T05:47:21;13.40;99.90
18541;DHT22;9400;50.924;5.328;2023-03-13T05:49:50;13.40;99.90
18541;DHT22;9400;50.924;5.328;2023-03-13T05:52:18;13.40;99.90
18541;DHT22;9400;50.924;5.328;2023-03-13T05:54:45;13.40;99.90
18541;DHT22;9400;50.924;5.328;2023-03-13T05:57:13;13.40;99.90
18541;DHT22;9400;50.924;5.328;2023-03-13T05:59:41;13.50;99.90
18541;DHT22;9400;50.924;5.328;2023-03-13T06:02:09;13.50;99.90
18541;DHT22;9400;50.924;5.328;2023-03-13T06:04:37;13.50;99.90
18541;DHT22;9400;50.924;5.328;2023-03-13T06:07:07;13.50;99.90
18541;DHT22;9400;50.924;5.328;2023-03-13T06:09:35;13.50;99.90
18541;DHT22;9400;50.924;5.328;2023-03-13T06:12:03;13.50;99.90
18541;DHT22;9400;50.924;5.328;2023-03-13T06:14:31;13.60;99.90
18541;DHT22;9400;50.924;5.328;2023-03-13T06:16:59;13.60;99.90
18541;DHT22;9400;50.924;5.328;2023-03-13T06:19:26;13.60;99.90
18541;DHT22;9400;50.924;5.328;2023-03-13T06:21:54;13.60;99.90
18541;DHT22;9400;50.924;5.328;2023-03-13T06:24:23;13.60;99.90
18541;DHT22;9400;50.924;5.328;2023-03-13T06:26:50;13.70;99.90
18541;DHT22;9400;50.924;5.328;2023-03-13T06:29:18;13.70;99.90
18541;DHT22;9400;50.924;5.328;2023-03-13T06:31:46;13.70;99.90
18541;DHT22;9400;50.924;5.328;2023-03-13T06:34:14;13.70;99.90
18541;DHT22;9400;50.924;5.328;2023-03-13T06:36:42;13.70;99.90
18541;DHT22;9400;50.924;5.328;2023-03-13T06:39:11;13.70;99.90
18541;DHT22;9400;50.924;5.328;2023-03-13T06:41:40;13.70;99.90
18541;DHT22;9400;50.924;5.328;2023-03-13T06:44:08;13.70;99.90
18541;DHT22;9400;50.924;5.328;2023-03-13T06:46:36;13.70;99.90
18541;DHT22;9400;50.924;5.328;2023-03-13T06:49:03;13.80;99.90
18541;DHT22;9400;50.924;5.328;2023-03-13T06:51:31;13.80;99.90
18541;DHT22;9400;50.924;5.328;2023-03-13T06:54:00;13.70;99.90
18541;DHT22;9400;50.924;5.328;2023-03-13T06:56:28;13.80;99.90
18541;DHT22;9400;50.924;5.328;2023-03-13T06:58:57;13.80;99.90
18541;DHT22;9400;50.924;5.328;2023-03-13T07:01:24;13.80;99.90
18541;DHT22;9400;50.924;5.328;2023-03-13T07:03:51;13.80;99.90
18541;DHT22;9400;50.924;5.328;2023-03-13T07:06:19;13.80;99.90
18541;DHT22;9400;50.924;5.328;2023-03-13T07:08:47;13.80;99.90
18541;DHT22;9400;50.924;5.328;2023-03-13T07:11:15;13.80;99.90
18541;DHT22;9400;50.924;5.328;2023-03-13T07:13:42;13.80;99.90
18541;DHT22;9400;50.924;5.328;2023-03-13T07:16:12;13.80;99.90
18541;DHT22;9400;50.924;5.328;2023-03-13T07:18:40;13.90;99.90
18541;DHT22;9400;50.924;5.328;2023-03-13T07:21:10;13.90;99.90
18541;DHT22;9400;50.924;5.328;2023-03-13T07:23:38;13.90;99.90
18541;DHT22;9400;50.924;5.328;2023-03-13T07:26:07;13.90;99.90
18541;DHT22;9400;50.924;5.328;2023-03-13T07:28:36;13.90;99.90
18541;DHT22;9400;50.924;5.328;2023-03-13T07:31:05;13.90;99.90
18541;DHT22;9400;50.924;5.328;2023-03-13T07:33:35;14.00;99.90
18541;DHT22;9400;50.924;5.328;2023-03-13T07:36:03;14.00;99.90
18541;DHT22;9400;50.924;5.328;2023-03-13T07:38:30;14.00;99.90
18541;DHT22;9400;50.924;5.328;2023-03-13T07:40:58;14.00;99.90
18541;DHT22;9400;50.924;5.328;2023-03-13T07:43:28;14.10;99.90
18541;DHT22;9400;50.924;5.328;2023-03-13T07:45:57;14.10;99.90
18541;DHT22;9400;50.924;5.328;2023-03-13T07:48:27;14.10;99.90
18541;DHT22;9400;50.924;5.328;2023-03-13T07:50:57;14.10;99.90
18541;DHT22;9400;50.924;5.328;2023-03-13T07:53:26;14.30;99.90
18541;DHT22;9400;50.924;5.328;2023-03-13T07:55:56;14.30;99.90
18541;DHT22;9400;50.924;5.328;2023-03-13T07:58:25;14.30;99.90
18541;DHT22;9400;50.924;5.328;2023-03-13T08:00:53;14.30;99.90
18541;DHT22;9400;50.924;5.328;2023-03-13T08:03:20;14.30;99.90
18541;DHT22;9400;50.924;5.328;2023-03-13T08:05:57;14.30;99.90
18541;DHT22;9400;50.924;5.328;2023-03-13T08:08:25;14.30;99.90
18541;DHT22;9400;50.924;5.328;2023-03-13T08:10:52;14.30;99.90
18541;DHT22;9400;50.924;5.328;2023-03-13T08:13:20;14.30;99.90
18541;DHT22;9400;50.924;5.328;2023-03-13T08:15:48;14.40;99.90
18541;DHT22;9400;50.924;5.328;2023-03-13T08:18:15;14.50;99.90
18541;DHT22;9400;50.924;5.328;2023-03-13T08:20:43;14.50;99.90
18541;DHT22;9400;50.924;5.328;2023-03-13T08:23:11;14.40;99.90
18541;DHT22;9400;50.924;5.328;2023-03-13T08:25:39;14.40;99.90
18541;DHT22;9400;50.924;5.328;2023-03-13T08:28:06;14.50;99.90
18541;DHT22;9400;50.924;5.328;2023-03-13T08:30:35;14.50;99.90
18541;DHT22;9400;50.924;5.328;2023-03-13T08:33:03;14.60;99.90
18541;DHT22;9400;50.924;5.328;2023-03-13T08:35:31;14.60;99.90
18541;DHT22;9400;50.924;5.328;2023-03-13T08:37:58;14.70;99.90
18541;DHT22;9400;50.924;5.328;2023-03-13T08:40:27;14.80;99.90
18541;DHT22;9400;50.924;5.328;2023-03-13T08:42:55;14.80;99.90
18541;DHT22;9400;50.924;5.328;2023-03-13T08:45:22;14.80;99.90
18541;DHT22;9400;50.924;5.328;2023-03-13T08:47:51;14.70;99.90
18541;DHT22;9400;50.924;5.328;2023-03-13T08:50:19;14.60;99.90
18541;DHT22;9400;50.924;5.328;2023-03-13T08:52:47;14.60;99.90
18541;DHT22;9400;50.924;5.328;2023-03-13T08:55:15;14.70;99.90
18541;DHT22;9400;50.924;5.328;2023-03-13T08:57:44;14.80;99.90
18541;DHT22;9400;50.924;5.328;2023-03-13T09:00:13;15.00;99.90
18541;DHT22;9400;50.924;5.328;2023-03-13T09:02:41;15.10;99.90
18541;DHT22;9400;50.924;5.328;2023-03-13T09:05:08;15.20;99.90
18541;DHT22;9400;50.924;5.328;2023-03-13T09:07:36;15.30;99.90
18541;DHT22;9400;50.924;5.328;2023-03-13T09:10:04;15.30;99.90
18541;DHT22;9400;50.924;5.328;2023-03-13T09:12:32;15.40;99.90
18541;DHT22;9400;50.924;5.328;2023-03-13T09:15:01;15.30;99.90
18541;DHT22;9400;50.924;5.328;2023-03-13T09:17:29;15.30;99.90
18541;DHT22;9400;50.924;5.328;2023-03-13T09:19:57;15.40;99.90
18541;DHT22;9400;50.924;5.328;2023-03-13T09:22:24;15.40;99.90
18541;DHT22;9400;50.924;5.328;2023-03-13T09:24:52;15.30;99.90
18541;DHT22;9400;50.924;5.328;2023-03-13T09:27:19;15.30;99.90
18541;DHT22;9400;50.924;5.328;2023-03-13T09:29:47;15.40;99.90
18541;DHT22;9400;50.924;5.328;2023-03-13T09:32:16;15.40;99.90
18541;DHT22;9400;50.924;5.328;2023-03-13T09:34:45;15.50;99.90
18541;DHT22;9400;50.924;5.328;2023-03-13T09:37:12;15.60;99.90
18541;DHT22;9400;50.924;5.328;2023-03-13T09:39:40;15.70;99.90
18541;DHT22;9400;50.924;5.328;2023-03-13T09:42:12;15.80;99.90
18541;DHT22;9400;50.924;5.328;2023-03-13T09:44:45;15.60;99.90
18541;DHT22;9400;50.924;5.328;2023-03-13T09:47:21;15.60;99.90
18541;DHT22;9400;50.924;5.328;2023-03-13T09:49:53;15.60;99.90
18541;DHT22;9400;50.924;5.328;2023-03-13T09:52:24;15.60;99.90
18541;DHT22;9400;50.924;5.328;2023-03-13T09:54:56;15.70;99.90
18541;DHT22;9400;50.924;5.328;2023-03-13T09:57:29;15.80;99.90
18541;DHT22;9400;50.924;5.328;2023-03-13T10:00:02;15.80;99.90
18541;DHT22;9400;50.924;5.328;2023-03-13T10:02:38;15.90;99.90
18541;DHT22;9400;50.924;5.328;2023-03-13T10:05:12;15.90;99.90
18541;DHT22;9400;50.924;5.328;2023-03-13T10:07:40;15.90;99.90
18541;DHT22;9400;50.924;5.328;2023-03-13T10:10:13;15.90;99.90
18541;DHT22;9400;50.924;5.328;2023-03-13T10:12:45;15.90;99.90
18541;DHT22;9400;50.924;5.328;2023-03-13T10:15:34;15.90;99.90
18541;DHT22;9400;50.924;5.328;2023-03-13T10:18:14;15.90;99.90
18541;DHT22;9400;50.924;5.328;2023-03-13T10:20:44;16.00;99.90
18541;DHT22;9400;50.924;5.328;2023-03-13T10:23:17;16.00;99.90
18541;DHT22;9400;50.924;5.328;2023-03-13T10:25:46;16.10;99.90
18541;DHT22;9400;50.924;5.328;2023-03-13T10:28:15;16.10;99.90
18541;DHT22;9400;50.924;5.328;2023-03-13T10:30:47;16.00;99.90
18541;DHT22;9400;50.924;5.328;2023-03-13T10:33:26;15.90;99.90
18541;DHT22;9400;50.924;5.328;2023-03-13T10:36:05;16.00;99.90
18541;DHT22;9400;50.924;5.328;2023-03-13T10:38:44;16.10;99.90
18541;DHT22;9400;50.924;5.328;2023-03-13T10:41:24;16.30;99.90
18541;DHT22;9400;50.924;5.328;2023-03-13T10:43:54;16.40;99.90
18541;DHT22;9400;50.924;5.328;2023-03-13T10:46:27;16.70;99.90
18541;DHT22;9400;50.924;5.328;2023-03-13T10:49:00;16.60;99.90
18541;DHT22;9400;50.924;5.328;2023-03-13T10:51:35;16.60;99.90
18541;DHT22;9400;50.924;5.328;2023-03-13T10:54:14;16.60;99.90
18541;DHT22;9400;50.924;5.328;2023-03-13T10:56:42;16.60;99.90
18541;DHT22;9400;50.924;5.328;2023-03-13T10:59:22;16.50;99.90
18541;DHT22;9400;50.924;5.328;2023-03-13T11:01:50;16.60;99.90
18541;DHT22;9400;50.924;5.328;2023-03-13T11:04:27;16.70;99.90
18541;DHT22;9400;50.924;5.328;2023-03-13T11:07:02;16.90;99.90
18541;DHT22;9400;50.924;5.328;2023-03-13T11:09:30;17.10;99.90
18541;DHT22;9400;50.924;5.328;2023-03-13T11:12:03;17.30;99.90
18541;DHT22;9400;50.924;5.328;2023-03-13T11:14:31;17.10;99.90
18541;DHT22;9400;50.924;5.328;2023-03-13T11:17:07;16.90;99.90
18541;DHT22;9400;50.924;5.328;2023-03-13T11:19:49;17.00;99.90
18541;DHT22;9400;50.924;5.328;2023-03-13T11:22:29;17.10;99.90
18541;DHT22;9400;50.924;5.328;2023-03-13T11:25:10;17.00;99.90
18541;DHT22;9400;50.924;5.328;2023-03-13T11:27:44;16.90;99.90
18541;DHT22;9400;50.924;5.328;2023-03-13T11:30:33;16.90;99.90
18541;DHT22;9400;50.924;5.328;2023-03-13T11:33:09;17.20;99.90
18541;DHT22;9400;50.924;5.328;2023-03-13T11:35:46;17.10;99.90
18541;DHT22;9400;50.924;5.328;2023-03-13T11:38:18;17.00;99.90
18541;DHT22;9400;50.924;5.328;2023-03-13T11:40:55;17.00;99.90
18541;DHT22;9400;50.924;5.328;2023-03-13T11:43:41;16.90;99.90
18541;DHT22;9400;50.924;5.328;2023-03-13T11:46:36;16.90;99.90
18541;DHT22;9400;50.924;5.328;2023-03-13T11:49:22;17.00;99.90
18541;DHT22;9400;50.924;5.328;2023-03-13T11:52:03;17.00;99.90
18541;DHT22;9400;50.924;5.328;2023-03-13T11:54:55;17.00;99.90
18541;DHT22;9400;50.924;5.328;2023-03-13T11:57:27;17.10;99.90
18541;DHT22;9400;50.924;5.328;2023-03-13T12:00:18;17.20;99.90
18541;DHT22;9400;50.924;5.328;2023-03-13T12:02:50;17.50;99.90
18541;DHT22;9400;50.924;5.328;2023-03-13T12:05:21;18.10;99.90
18541;DHT22;9400;50.924;5.328;2023-03-13T12:07:54;18.30;99.90
18541;DHT22;9400;50.924;5.328;2023-03-13T12:10:27;18.30;99.90
18541;DHT22;9400;50.924;5.328;2023-03-13T12:13:01;18.40;99.90
18541;DHT22;9400;50.924;5.328;2023-03-13T12:15:33;18.30;99.90
18541;DHT22;9400;50.924;5.328;2023-03-13T12:18:08;17.80;99.90
18541;DHT22;9400;50.924;5.328;2023-03-13T12:20:43;17.80;99.90
18541;DHT22;9400;50.924;5.328;2023-03-13T12:23:24;17.60;99.90
18541;DHT22;9400;50.924;5.328;2023-03-13T12:25:58;17.20;99.90
18541;DHT22;9400;50.924;5.328;2023-03-13T12:28:34;17.20;99.90
18541;DHT22;9400;50.924;5.328;2023-03-13T12:31:10;17.40;99.90
18541;DHT22;9400;50.924;5.328;2023-03-13T12:33:43;17.50;99.90
18541;DHT22;9400;50.924;5.328;2023-03-13T12:36:21;17.30;99.90
18541;DHT22;9400;50.924;5.328;2023-03-13T12:39:04;17.30;99.90
18541;DHT22;9400;50.924;5.328;2023-03-13T12:41:39;17.50;99.90
18541;DHT22;9400;50.924;5.328;2023-03-13T12:44:13;17.80;99.90
18541;DHT22;9400;50.924;5.328;2023-03-13T12:46:45;17.50;99.90
18541;DHT22;9400;50.924;5.328;2023-03-13T12:49:43;17.40;99.90
18541;DHT22;9400;50.924;5.328;2023-03-13T12:52:47;17.20;99.90
18541;DHT22;9400;50.924;5.328;2023-03-13T12:58:25;17.30;99.90
18541;DHT22;9400;50.924;5.328;2023-03-13T13:01:00;17.20;99.90
18541;DHT22;9400;50.924;5.328;2023-03-13T13:03:32;17.20;99.90
18541;DHT22;9400;50.924;5.328;2023-03-13T13:06:09;17.30;99.90
18541;DHT22;9400;50.924;5.328;2023-03-13T13:08:42;17.10;99.90
18541;DHT22;9400;50.924;5.328;2023-03-13T13:11:46;16.90;99.90
18541;DHT22;9400;50.924;5.328;2023-03-13T13:17:33;16.90;99.90
18541;DHT22;9400;50.924;5.328;2023-03-13T13:20:27;17.10;99.90
18541;DHT22;9400;50.924;5.328;2023-03-13T13:22:56;17.20;99.90
18541;DHT22;9400;50.924;5.328;2023-03-13T13:25:42;17.60;99.90
18541;DHT22;9400;50.924;5.328;2023-03-13T13:28:31;17.80;99.90
18541;DHT22;9400;50.924;5.328;2023-03-13T13:31:00;17.90;99.90
18541;DHT22;9400;50.924;5.328;2023-03-13T13:33:36;17.70;99.90
18541;DHT22;9400;50.924;5.328;2023-03-13T13:36:29;17.60;99.90
18541;DHT22;9400;50.924;5.328;2023-03-13T13:38:57;17.50;99.90
18541;DHT22;9400;50.924;5.328;2023-03-13T13:41:34;17.30;99.90
18541;DHT22;9400;50.924;5.328;2023-03-13T13:44:27;17.30;99.90
18541;DHT22;9400;50.924;5.328;2023-03-13T13:47:00;17.30;99.90
18541;DHT22;9400;50.924;5.328;2023-03-13T13:49:37;17.10;99.90
18541;DHT22;9400;50.924;5.328;2023-03-13T13:52:38;17.20;99.90
18541;DHT22;9400;50.924;5.328;2023-03-13T13:55:32;17.30;99.90
18541;DHT22;9400;50.924;5.328;2023-03-13T13:58:02;17.40;99.90
18541;DHT22;9400;50.924;5.328;2023-03-13T14:00:38;17.30;99.90
18541;DHT22;9400;50.924;5.328;2023-03-13T14:03:19;17.50;99.90
18541;DHT22;9400;50.924;5.328;2023-03-13T14:05:49;17.80;99.90
18541;DHT22;9400;50.924;5.328;2023-03-13T14:08:22;17.70;99.90
18541;DHT22;9400;50.924;5.328;2023-03-13T14:10:54;17.60;99.90
18541;DHT22;9400;50.924;5.328;2023-03-13T14:13:30;17.80;99.90
18541;DHT22;9400;50.924;5.328;2023-03-13T14:16:19;18.30;99.90
18541;DHT22;9400;50.924;5.328;2023-03-13T14:18:47;20.60;99.90
18541;DHT22;9400;50.924;5.328;2023-03-13T14:21:21;20.10;99.90
18541;DHT22;9400;50.924;5.328;2023-03-13T14:23:49;18.70;99.90
18541;DHT22;9400;50.924;5.328;2023-03-13T14:26:18;17.70;99.90
18541;DHT22;9400;50.924;5.328;2023-03-13T14:28:48;17.40;99.90
18541;DHT22;9400;50.924;5.328;2023-03-13T14:31:25;17.40;99.90
18541;DHT22;9400;50.924;5.328;2023-03-13T14:33:54;17.30;99.90
18541;DHT22;9400;50.924;5.328;2023-03-13T14:36:22;17.30;99.90
18541;DHT22;9400;50.924;5.328;2023-03-13T14:38:54;17.80;99.90
18541;DHT22;9400;50.924;5.328;2023-03-13T14:41:25;18.70;99.90
18541;DHT22;9400;50.924;5.328;2023-03-13T14:43:54;18.90;99.90
18541;DHT22;9400;50.924;5.328;2023-03-13T14:46:28;18.90;99.90
18541;DHT22;9400;50.924;5.328;2023-03-13T14:49:03;19.80;99.90
18541;DHT22;9400;50.924;5.328;2023-03-13T14:51:31;19.60;99.90
18541;DHT22;9400;50.924;5.328;2023-03-13T14:54:00;20.80;99.90
18541;DHT22;9400;50.924;5.328;2023-03-13T14:56:33;21.30;99.90
18541;DHT22;9400;50.924;5.328;2023-03-13T14:59:14;21.20;99.90
18541;DHT22;9400;50.924;5.328;2023-03-13T15:01:44;20.40;99.90
18541;DHT22;9400;50.924;5.328;2023-03-13T15:04:14;20.80;99.90
18541;DHT22;9400;50.924;5.328;2023-03-13T15:06:42;20.70;99.90
18541;DHT22;9400;50.924;5.328;2023-03-13T15:09:21;20.20;99.90
18541;DHT22;9400;50.924;5.328;2023-03-13T15:11:55;19.80;99.90
18541;DHT22;9400;50.924;5.328;2023-03-13T15:14:38;19.40;99.90
18541;DHT22;9400;50.924;5.328;2023-03-13T15:17:16;20.50;99.90
18541;DHT22;9400;50.924;5.328;2023-03-13T15:19:49;21.80;99.90
18541;DHT22;9400;50.924;5.328;2023-03-13T15:22:17;20.30;99.90
18541;DHT22;9400;50.924;5.328;2023-03-13T15:24:46;20.20;99.90
18541;DHT22;9400;50.924;5.328;2023-03-13T15:27:17;20.60;99.90
18541;DHT22;9400;50.924;5.328;2023-03-13T15:29:45;20.70;99.90
18541;DHT22;9400;50.924;5.328;2023-03-13T15:32:22;19.60;99.90
18541;DHT22;9400;50.924;5.328;2023-03-13T15:34:51;20.30;99.90
18541;DHT22;9400;50.924;5.328;2023-03-13T15:37:23;21.30;99.90
18541;DHT22;9400;50.924;5.328;2023-03-13T15:39:50;21.10;99.90
18541;DHT22;9400;50.924;5.328;2023-03-13T15:42:18;20.50;99.90
18541;DHT22;9400;50.924;5.328;2023-03-13T15:44:45;20.50;99.90
18541;DHT22;9400;50.924;5.328;2023-03-13T15:47:18;21.40;99.90
18541;DHT22;9400;50.924;5.328;2023-03-13T15:49:47;20.90;99.90
18541;DHT22;9400;50.924;5.328;2023-03-13T15:52:17;20.00;99.90
18541;DHT22;9400;50.924;5.328;2023-03-13T15:54:45;19.30;99.90
18541;DHT22;9400;50.924;5.328;2023-03-13T15:57:13;18.90;99.90
18541;DHT22;9400;50.924;5.328;2023-03-13T15:59:41;19.00;99.90
18541;DHT22;9400;50.924;5.328;2023-03-13T16:02:16;18.30;99.90
18541;DHT22;9400;50.924;5.328;2023-03-13T16:04:44;18.60;99.90
18541;DHT22;9400;50.924;5.328;2023-03-13T16:07:14;18.30;99.90
18541;DHT22;9400;50.924;5.328;2023-03-13T16:09:42;18.30;99.90
18541;DHT22;9400;50.924;5.328;2023-03-13T16:12:11;18.50;99.90
18541;DHT22;9400;50.924;5.328;2023-03-13T16:14:39;18.50;99.90
18541;DHT22;9400;50.924;5.328;2023-03-13T16:17:12;18.40;99.90